Fox Lake, Indiana
Current Conditions -  °F | °C
As of 2:35 PM on Saturday 20 Dec 2014 (Local Time) from KANQ Reporting Station
Overcast Overcast  
Wind Chill: 24°   Ceiling: 3100
Heat Index: 30°   Visibility: 10mi
Dew Point: 23°   Wind: 6mph
Humidity: 75%   Direction: 290°WNW
Pressure: 30.24"   Gusts: NA
Location:  41.6594°N, 85.0055°W
Report Text: KANQ 201935Z AUTO 29005KT 10SM FEW023 OVC031 M01/M05 A3024 RMK
Loading
Personal Weather Stations






























Interactive Weather Map New forecast layout! Learn more

10-Day Weather Forecast

Advertisements
Track Severe Weather on mobile